Terminal Aerodrome Forecast
Issued by NWS Blacksburg, VA

Home | Current Version | Previous Version | Text Only | Print | Product List | Glossary On
Versions: 1 2 3 4 5 6 7 8 9 10 11 12 13
000
FTUS41 KRNK 190543
TAFLYH
TAF
KLYH 190543Z 1906/2006 03005KT P6SM OVC150
     FM191300 05008KT P6SM -RA BKN035 OVC090
     FM192000 07013G20KT P6SM BKN035 OVC150=

USA.gov is the U.S. government's official web portal to all federal, state and local government web resources and services.